TimeCDT,TemperatureF,Dew PointF,Humidity,Sea Level PressureIn,VisibilityMPH,Wind Direction,Wind SpeedMPH,Gust SpeedMPH,PrecipitationIn,Events,Conditions,WindDirDegrees,DateUTC
12:15 AM,63.1,58.1,84,30.03,10.0,SE,4.6,-,N/A,,Clear,140,2013-07-04 05:15:00
12:35 AM,62.4,58.1,86,30.03,10.0,SE,4.6,-,N/A,,Clear,140,2013-07-04 05:35:00
12:55 AM,61.9,58.1,87,30.03,10.0,SSE,3.5,-,N/A,,Clear,160,2013-07-04 05:55:00
1:15 AM,61.2,57.4,87,30.03,10.0,Calm,Calm,-,N/A,,Clear,0,2013-07-04 06:15:00
1:35 AM,60.4,57.2,89,30.03,10.0,Calm,Calm,-,N/A,,Clear,0,2013-07-04 06:35:00
1:55 AM,59.9,56.8,90,30.02,10.0,SSE,4.6,-,N/A,,Clear,160,2013-07-04 06:55:00
2:15 AM,59.9,56.7,89,30.02,10.0,South,4.6,-,N/A,,Clear,170,2013-07-04 07:15:00
2:35 AM,60.4,56.5,87,30.02,10.0,South,3.5,-,N/A,,Clear,180,2013-07-04 07:35:00
2:55 AM,59.7,55.9,87,30.02,10.0,South,3.5,-,N/A,,Clear,190,2013-07-04 07:55:00
3:15 AM,59.4,55.8,88,30.02,10.0,Calm,Calm,-,N/A,,Clear,0,2013-07-04 08:15:00
3:35 AM,59.0,55.6,88,30.01,10.0,South,3.5,-,N/A,,Clear,180,2013-07-04 08:35:00
3:55 AM,58.1,54.9,89,30.01,10.0,SSW,3.5,-,N/A,,Clear,200,2013-07-04 08:55:00
4:15 AM,58.1,54.9,89,30.02,10.0,SW,4.6,-,N/A,,Clear,220,2013-07-04 09:15:00
4:35 AM,59.2,55.0,86,30.01,10.0,SW,4.6,-,N/A,,Clear,220,2013-07-04 09:35:00
4:55 AM,58.8,54.5,86,30.02,10.0,SW,4.6,-,N/A,,Clear,220,2013-07-04 09:55:00
5:15 AM,57.6,54.0,88,30.03,10.0,South,3.5,-,N/A,,Clear,170,2013-07-04 10:15:00
5:35 AM,58.1,54.3,87,30.03,10.0,South,3.5,-,N/A,,Clear,190,2013-07-04 10:35:00
5:55 AM,57.2,54.0,89,30.04,10.0,South,3.5,-,N/A,,Clear,190,2013-07-04 10:55:00
6:15 AM,57.6,54.1,88,30.04,10.0,Calm,Calm,-,N/A,,Clear,0,2013-07-04 11:15:00
6:35 AM,58.1,54.9,89,30.04,10.0,South,3.5,-,N/A,,Clear,190,2013-07-04 11:35:00
6:55 AM,59.5,55.4,86,30.05,10.0,SSE,3.5,-,N/A,,Clear,160,2013-07-04 11:55:00
7:15 AM,60.8,55.4,82,30.05,10.0,South,3.5,-,N/A,,Clear,180,2013-07-04 12:15:00
7:35 AM,62.6,55.9,79,30.05,10.0,SSE,4.6,-,N/A,,Clear,160,2013-07-04 12:35:00
7:55 AM,63.7,55.9,76,30.06,10.0,SSE,5.8,-,N/A,,Clear,160,2013-07-04 12:55:00
8:15 AM,66.0,56.7,72,30.06,10.0,South,4.6,-,N/A,,Clear,170,2013-07-04 13:15:00
8:35 AM,68.0,57.0,68,30.06,10.0,SSE,6.9,-,N/A,,Clear,160,2013-07-04 13:35:00
8:55 AM,68.9,56.5,65,30.06,10.0,South,6.9,-,N/A,,Clear,170,2013-07-04 13:55:00
9:15 AM,70.7,57.2,62,30.06,10.0,South,6.9,-,N/A,,Clear,180,2013-07-04 14:15:00
9:35 AM,71.2,56.1,59,30.06,10.0,South,6.9,-,N/A,,Clear,190,2013-07-04 14:35:00
9:55 AM,72.5,55.6,55,30.06,10.0,South,9.2,-,N/A,,Clear,190,2013-07-04 14:55:00
10:15 AM,73.4,55.4,53,30.06,10.0,South,10.4,-,N/A,,Clear,180,2013-07-04 15:15:00
10:35 AM,74.7,56.5,53,30.06,10.0,South,9.2,-,N/A,,Clear,190,2013-07-04 15:35:00
10:55 AM,75.6,56.7,52,30.06,10.0,SSW,8.1,-,N/A,,Clear,200,2013-07-04 15:55:00
11:15 AM,76.8,55.2,47,30.05,10.0,SSW,8.1,-,N/A,,Clear,210,2013-07-04 16:15:00
11:35 AM,77.2,55.6,47,30.05,10.0,SSW,10.4,-,N/A,,Clear,200,2013-07-04 16:35:00
11:55 AM,77.9,55.9,47,30.05,10.0,SSW,6.9,-,N/A,,Clear,200,2013-07-04 16:55:00
12:15 PM,78.8,56.3,46,30.05,10.0,SSW,8.1,-,N/A,,Clear,210,2013-07-04 17:15:00
12:35 PM,79.0,56.7,46,30.05,10.0,SSW,9.2,-,N/A,,Clear,200,2013-07-04 17:35:00
12:55 PM,79.5,56.5,45,30.05,10.0,SSW,9.2,-,N/A,,Clear,210,2013-07-04 17:55:00
1:15 PM,80.1,57.9,47,30.04,10.0,SSW,8.1,-,N/A,,Clear,200,2013-07-04 18:15:00
1:35 PM,80.4,57.0,45,30.04,10.0,South,5.8,-,N/A,,Clear,190,2013-07-04 18:35:00
1:55 PM,81.0,58.1,46,30.03,10.0,South,5.8,-,N/A,,Clear,190,2013-07-04 18:55:00
2:15 PM,81.5,55.2,40,30.03,10.0,SSE,6.9,-,N/A,,Clear,160,2013-07-04 19:15:00
2:35 PM,81.7,56.1,41,30.03,10.0,South,9.2,17.3,N/A,,Clear,190,2013-07-04 19:35:00
2:55 PM,81.7,56.3,42,30.02,10.0,South,9.2,-,N/A,,Clear,180,2013-07-04 19:55:00
3:15 PM,82.0,56.1,41,30.02,10.0,South,9.2,-,N/A,,Clear,190,2013-07-04 20:15:00
3:35 PM,82.4,55.8,40,30.02,10.0,SSE,9.2,-,N/A,,Clear,150,2013-07-04 20:35:00
3:55 PM,82.8,55.2,39,30.01,10.0,South,9.2,-,N/A,,Clear,190,2013-07-04 20:55:00
4:15 PM,82.4,55.6,40,30.01,10.0,South,6.9,-,N/A,,Clear,190,2013-07-04 21:15:00
4:35 PM,82.4,54.3,38,30.01,10.0,South,6.9,-,N/A,,Clear,180,2013-07-04 21:35:00
4:55 PM,82.2,55.4,40,30.01,10.0,South,8.1,-,N/A,,Clear,180,2013-07-04 21:55:00
5:15 PM,82.2,55.4,40,30.00,10.0,South,8.1,-,N/A,,Clear,170,2013-07-04 22:15:00
5:35 PM,82.2,54.3,38,29.99,10.0,SSE,9.2,-,N/A,,Clear,160,2013-07-04 22:35:00
5:55 PM,81.9,54.5,39,29.99,10.0,South,6.9,-,N/A,,Clear,180,2013-07-04 22:55:00
6:15 PM,81.7,54.3,39,29.99,10.0,South,8.1,-,N/A,,Clear,190,2013-07-04 23:15:00
6:35 PM,81.5,54.7,40,29.99,10.0,SSE,10.4,-,N/A,,Clear,160,2013-07-04 23:35:00
6:55 PM,80.8,54.5,40,29.99,10.0,SSE,9.2,-,N/A,,Clear,160,2013-07-04 23:55:00
7:15 PM,80.2,55.6,43,29.98,10.0,SSE,6.9,-,N/A,,Clear,160,2013-07-05 00:15:00
7:35 PM,79.3,56.7,46,29.98,10.0,SSE,5.8,-,N/A,,Clear,150,2013-07-05 00:35:00
7:55 PM,78.3,57.0,48,29.98,10.0,SE,5.8,-,N/A,,Clear,140,2013-07-05 00:55:00
8:15 PM,76.5,57.9,53,29.98,10.0,SSE,5.8,-,N/A,,Clear,150,2013-07-05 01:15:00
8:35 PM,73.9,59.0,59,29.98,10.0,SE,4.6,-,N/A,,Clear,140,2013-07-05 01:35:00
8:55 PM,72.0,59.0,64,29.98,10.0,SE,5.8,-,N/A,,Clear,140,2013-07-05 01:55:00
9:15 PM,70.5,59.0,67,29.98,10.0,SE,5.8,-,N/A,,Clear,140,2013-07-05 02:15:00
9:35 PM,69.6,58.6,68,29.99,10.0,SE,4.6,-,N/A,,Clear,140,2013-07-05 02:35:00
9:55 PM,68.4,58.8,71,29.99,10.0,SE,5.8,-,N/A,,Clear,140,2013-07-05 02:55:00
10:15 PM,68.4,58.5,71,30.00,10.0,SE,4.6,-,N/A,,Clear,140,2013-07-05 03:15:00
10:35 PM,67.8,58.5,72,30.00,10.0,SE,5.8,-,N/A,,Clear,140,2013-07-05 03:35:00
10:55 PM,67.5,58.6,73,30.00,10.0,SE,5.8,-,N/A,,Clear,140,2013-07-05 03:55:00
11:15 PM,68.0,58.3,71,30.00,10.0,SSE,5.8,-,N/A,,Clear,150,2013-07-05 04:15:00
11:35 PM,66.6,58.3,75,30.00,10.0,SSE,4.6,-,N/A,,Clear,150,2013-07-05 04:35:00
11:55 PM,65.5,58.1,77,30.00,10.0,SSE,4.6,-,N/A,,Clear,150,2013-07-05 04:55:00